createdAt,value
2019-02-20T00:04:33.094Z,40.4
2019-02-20T00:10:28.075Z,39.57
2019-02-20T00:16:23.047Z,42.77
2019-02-20T00:22:18.062Z,35.95
2019-02-20T00:28:13.058Z,50.11
2019-02-20T00:34:08.328Z,37.25
2019-02-20T00:40:03.067Z,40.89
2019-02-20T00:45:58.109Z,38.16
2019-02-20T00:51:53.094Z,50.46
2019-02-20T00:57:48.083Z,40.75
2019-02-20T01:03:43.056Z,46.69
2019-02-20T01:09:38.099Z,51.07
2019-02-20T01:15:33.066Z,42.96
2019-02-20T01:21:28.086Z,51.53
2019-02-20T01:27:23.081Z,44.51
2019-02-20T01:33:18.093Z,48.89
2019-02-20T01:39:13.102Z,44.54
2019-02-20T01:45:08.118Z,45.39
2019-02-20T01:51:03.095Z,45.57
2019-02-20T01:56:58.103Z,51.61
2019-02-20T02:02:53.098Z,44.36
2019-02-20T02:08:48.152Z,47.73
2019-02-20T02:14:43.105Z,49.53
2019-02-20T02:20:38.159Z,43.44
2019-02-20T02:26:33.132Z,44.4
2019-02-20T02:32:28.134Z,52.6
2019-02-20T02:38:23.128Z,50.55
2019-02-20T02:44:18.154Z,45.38
2019-02-20T02:50:13.227Z,47.95
2019-02-20T02:56:08.201Z,64.82
2019-02-20T03:02:03.136Z,51.93
2019-02-20T03:07:58.152Z,50.42
2019-02-20T03:13:53.142Z,49.7
2019-02-20T03:19:48.189Z,45.46
2019-02-20T03:25:43.189Z,47.52
2019-02-20T03:31:38.178Z,49.06
2019-02-20T03:37:33.185Z,55.02
2019-02-20T03:43:28.163Z,46.53
2019-02-20T03:49:23.184Z,47.64
2019-02-20T03:55:18.168Z,43.59
2019-02-20T04:01:13.223Z,38.49
2019-02-20T04:07:08.172Z,41.71
2019-02-20T04:13:03.208Z,43.8
2019-02-20T04:18:58.193Z,44.24
2019-02-20T04:24:53.218Z,45.71
2019-02-20T04:30:48.220Z,47.34
2019-02-20T04:36:43.229Z,43.54
2019-02-20T04:42:38.200Z,49.44
2019-02-20T04:48:33.192Z,46.74
2019-02-20T04:54:28.246Z,41.07
2019-02-20T05:00:23.212Z,43.39
2019-02-20T05:06:18.239Z,46.4
2019-02-20T05:12:13.205Z,41.58
2019-02-20T05:18:08.242Z,44.19
2019-02-20T05:24:03.288Z,39.24
2019-02-20T05:29:58.239Z,33.95
2019-02-20T05:35:53.305Z,32.05
2019-02-20T05:41:48.247Z,39.67
2019-02-20T05:47:43.230Z,37.25
2019-02-20T05:53:38.260Z,37.99
2019-02-20T05:59:33.245Z,38.75
2019-02-20T06:05:28.270Z,36.85
2019-02-20T06:11:23.234Z,40.38
2019-02-20T06:17:18.242Z,98.45
2019-02-20T06:23:13.252Z,43.14
2019-02-20T06:29:08.248Z,36.67
2019-02-20T06:35:03.283Z,42.84
2019-02-20T06:40:58.283Z,40.84
2019-02-20T06:46:53.269Z,36.72
2019-02-20T06:52:48.272Z,44.34
2019-02-20T06:58:43.295Z,46.12
2019-02-20T07:04:38.322Z,43.96
2019-02-20T07:10:33.270Z,39.93
2019-02-20T07:16:28.317Z,41.06
2019-02-20T07:22:23.284Z,34.58
2019-02-20T07:28:18.299Z,42.3
2019-02-20T07:34:13.328Z,43.4
2019-02-20T07:40:08.290Z,34.36
2019-02-20T07:46:03.292Z,36.66
2019-02-20T07:51:58.301Z,27.16
2019-02-20T07:57:53.332Z,31.38
2019-02-20T08:03:48.309Z,32.21
2019-02-20T08:09:43.333Z,27.73
2019-02-20T08:15:38.330Z,27.1
2019-02-20T08:21:33.324Z,27.8
2019-02-20T08:27:28.323Z,31.06
2019-02-20T08:33:23.359Z,24.73
2019-02-20T08:39:18.315Z,24.15
2019-02-20T08:45:13.350Z,21.25
2019-02-20T08:51:08.361Z,18.54
2019-02-20T08:57:03.481Z,16.72
2019-02-20T09:02:58.394Z,22.63
2019-02-20T09:08:53.332Z,23.37
2019-02-20T09:14:48.403Z,20.66
2019-02-20T09:20:43.350Z,24.75
2019-02-20T09:26:38.373Z,24.53
2019-02-20T09:32:33.384Z,24.27
2019-02-20T09:38:28.376Z,20.4
2019-02-20T09:44:23.363Z,18.5
2019-02-20T09:50:18.423Z,22.33
2019-02-20T09:56:13.362Z,22.15
2019-02-20T10:02:08.368Z,19.88
2019-02-20T10:08:04.523Z,19.2
2019-02-20T10:13:58.406Z,19.24
2019-02-20T10:19:53.378Z,20.37
2019-02-20T10:25:48.387Z,18.29
2019-02-20T10:31:43.379Z,19.14
2019-02-20T10:37:38.387Z,19.97
2019-02-20T10:43:33.415Z,11.31
2019-02-20T10:49:28.430Z,14.09
2019-02-20T10:55:23.493Z,10.14
2019-02-20T11:01:18.406Z,9.45
2019-02-20T11:07:13.447Z,10.29
2019-02-20T11:13:08.423Z,10.54
2019-02-20T11:19:03.414Z,13.59
2019-02-20T11:24:58.456Z,9.45
2019-02-20T11:30:53.445Z,8.89
2019-02-20T11:36:49.392Z,7.86
2019-02-20T11:42:43.450Z,10.88
2019-02-20T11:48:38.426Z,13.86
2019-02-20T11:54:33.444Z,10.27
2019-02-20T12:00:28.466Z,9.18
2019-02-20T12:06:23.476Z,8.7
2019-02-20T12:12:18.448Z,11.75
2019-02-20T12:18:17.287Z,9.05
2019-02-20T12:24:08.463Z,6.65
2019-02-20T12:30:03.448Z,5.55
2019-02-20T12:35:58.464Z,11.38
2019-02-20T12:41:53.471Z,6.57
2019-02-20T12:47:48.521Z,9.06
2019-02-20T12:53:43.627Z,10.8
2019-02-20T12:59:38.518Z,7.9
2019-02-20T13:05:33.472Z,9.64
2019-02-20T13:11:28.507Z,5.7
2019-02-20T13:17:23.516Z,7.69
2019-02-20T13:23:20.047Z,7.46
2019-02-20T13:29:13.503Z,6.96
2019-02-20T13:35:08.500Z,5.83
2019-02-20T13:41:03.495Z,7.75
2019-02-20T13:46:58.526Z,7.68
2019-02-20T13:52:53.586Z,9.49
2019-02-20T13:58:48.518Z,7.38
2019-02-20T14:04:43.519Z,5.79
2019-02-20T14:10:38.615Z,8.49
2019-02-20T14:16:33.605Z,8.16
2019-02-20T14:22:28.545Z,9.69
2019-02-20T14:28:23.575Z,8.84
2019-02-20T14:34:18.532Z,9.27
2019-02-20T14:40:13.726Z,6.13
2019-02-20T14:46:08.580Z,6.67
2019-02-20T14:52:03.579Z,11.98
2019-02-20T14:57:58.608Z,7.87
2019-02-20T15:03:53.623Z,7.44
2019-02-20T15:09:48.576Z,9.35
2019-02-20T15:15:43.588Z,8.77
2019-02-20T15:21:38.582Z,9.47
2019-02-20T15:27:33.571Z,10.66
2019-02-20T15:33:28.591Z,9.66
2019-02-20T15:39:23.591Z,7.68
2019-02-20T15:45:18.611Z,11.25
2019-02-20T15:51:13.589Z,11.64
2019-02-20T15:57:08.598Z,14.3
2019-02-20T16:03:03.618Z,9.08
2019-02-20T16:08:58.637Z,11.91
2019-02-20T16:14:53.609Z,14.06
2019-02-20T16:20:48.619Z,17.65
2019-02-20T16:26:43.615Z,19.19
2019-02-20T16:32:38.632Z,22.3
2019-02-20T16:38:33.635Z,22.68
2019-02-20T16:44:28.686Z,22.88
2019-02-20T16:50:23.614Z,28.97
2019-02-20T16:56:18.642Z,22.4
2019-02-20T17:02:13.636Z,22.44
2019-02-20T17:08:08.682Z,24.2
2019-02-20T17:14:03.681Z,30.64
2019-02-20T17:19:58.648Z,30.44
2019-02-20T17:25:53.660Z,30.03
2019-02-20T17:31:48.674Z,28.42
2019-02-20T17:37:43.654Z,25.03
2019-02-20T17:43:38.699Z,26.33
2019-02-20T17:49:33.662Z,25.06
2019-02-20T17:55:28.685Z,27.78
2019-02-20T18:01:23.665Z,29.16
2019-02-20T18:07:18.670Z,30.05
2019-02-20T18:13:13.784Z,27.67
2019-02-20T18:19:08.682Z,38.61
2019-02-20T18:25:03.758Z,31.03
2019-02-20T18:30:58.772Z,42.75
2019-02-20T18:36:53.710Z,40.53
2019-02-20T18:42:48.740Z,45.51
2019-02-20T18:48:43.729Z,44.08
2019-02-20T18:54:38.697Z,40.43
2019-02-20T19:00:33.702Z,43.97
2019-02-20T19:06:28.716Z,39.88
2019-02-20T19:12:23.772Z,41.57
2019-02-20T19:18:18.763Z,35.34
2019-02-20T19:24:13.748Z,41.37
2019-02-20T19:30:09.721Z,37.84
2019-02-20T19:36:03.733Z,42.27
2019-02-20T19:41:58.731Z,42.19
2019-02-20T19:47:53.793Z,40.58
2019-02-20T19:53:48.755Z,35.18
2019-02-20T19:59:44.780Z,30.5
2019-02-20T20:05:38.751Z,36.02
2019-02-20T20:11:44.190Z,34.88
2019-02-20T20:17:28.754Z,38.98
2019-02-20T20:23:23.755Z,36.25
2019-02-20T20:29:18.783Z,43.95
2019-02-20T20:35:15.589Z,35.74
2019-02-20T20:41:09.246Z,38.29
2019-02-20T20:47:03.764Z,40.37
2019-02-20T20:52:58.765Z,34.96
2019-02-20T20:58:53.763Z,40.66
2019-02-20T21:04:48.778Z,47.65
2019-02-20T21:10:45.787Z,45.84
2019-02-20T21:16:38.803Z,36.9
2019-02-20T21:22:33.793Z,39.64
2019-02-20T21:28:28.783Z,37.62
2019-02-20T21:34:23.814Z,43.68
2019-02-20T21:40:18.809Z,43.43
2019-02-20T21:46:13.793Z,38.67
2019-02-20T21:52:08.780Z,43.28
2019-02-20T21:58:03.826Z,37.78
2019-02-20T22:03:58.824Z,37.43
2019-02-20T22:09:57.786Z,36.54
2019-02-20T22:15:48.825Z,38.03
2019-02-20T22:21:43.807Z,38.37
2019-02-20T22:27:38.851Z,38.06
2019-02-20T22:33:33.861Z,37.98
2019-02-20T22:39:28.847Z,45.14
2019-02-20T22:45:23.836Z,36.09
2019-02-20T22:51:18.870Z,37.99
2019-02-20T22:57:13.877Z,34.77
2019-02-20T23:03:08.843Z,40.33
2019-02-20T23:09:03.842Z,35.48
2019-02-20T23:14:58.856Z,37.53
2019-02-20T23:20:53.862Z,30.59
2019-02-20T23:26:48.848Z,36.32
2019-02-20T23:32:43.869Z,37.14
2019-02-20T23:38:38.917Z,34.65
2019-02-20T23:44:33.871Z,40.7
2019-02-20T23:50:28.868Z,35.48
2019-02-20T23:56:23.913Z,33.47
